Time;durP1;ratioP1;P1;durP2;ratioP2;P2;SDS_P1;SDS_P2;PMS_P1;PMS_P2;Temp;Humidity;BMP_temperature;BMP_pressure;BME280_temperature;BME280_humidity;BME280_pressure;Samples;Min_cycle;Max_cycle;Signal;HPM_P1;HPM_P2
2023/01/02 00:00:00;;;;;;;16.70;15.13;;;22.70;86.60;;;;;;6156248;28;89083;-71
2023/01/02 00:03:02;;;;;;;16.92;15.32;;;22.60;85.50;;;;;;6156659;28;89192;-70
2023/01/02 00:06:05;;;;;;;16.70;15.20;;;22.70;85.70;;;;;;6156774;28;89149;-70
2023/01/02 00:09:09;;;;;;;16.45;14.90;;;22.60;86.10;;;;;;6156493;28;89260;-71
2023/01/02 00:12:11;;;;;;;16.75;15.25;;;22.60;86.40;;;;;;6155922;28;88580;-70
2023/01/02 00:15:13;;;;;;;16.98;15.27;;;22.60;86.40;;;;;;6153985;28;89240;-70
2023/01/02 00:18:15;;;;;;;16.20;14.70;;;22.60;86.50;;;;;;6156210;28;89375;-70
2023/01/02 00:21:18;;;;;;;16.48;14.98;;;22.60;86.60;;;;;;6156325;28;90106;-69
2023/01/02 00:24:21;;;;;;;16.55;15.02;;;22.60;86.60;;;;;;6154444;28;89098;-70
2023/01/02 00:27:23;;;;;;;16.80;15.27;;;22.60;86.60;;;;;;6155836;28;89107;-70
2023/01/02 00:30:25;;;;;;;16.25;14.75;;;22.60;86.60;;;;;;6156062;28;89072;-71
2023/01/02 00:33:28;;;;;;;16.08;14.68;;;22.60;86.50;;;;;;6155138;28;88074;-69
2023/01/02 00:36:30;;;;;;;16.27;14.77;;;22.50;86.50;;;;;;6152956;28;89183;-70
2023/01/02 00:39:33;;;;;;;15.98;14.52;;;22.50;86.60;;;;;;6155014;28;89138;-70
2023/01/02 00:42:35;;;;;;;15.80;14.50;;;22.50;86.60;;;;;;6154954;28;88395;-70
2023/01/02 00:45:37;;;;;;;15.93;14.43;;;22.50;86.60;;;;;;6154727;28;89306;-71
2023/01/02 00:48:40;;;;;;;15.82;14.43;;;22.50;86.60;;;;;;6155583;28;89207;-71
2023/01/02 00:51:42;;;;;;;16.05;14.65;;;22.50;86.60;;;;;;6155047;28;90028;-70
2023/01/02 00:54:45;;;;;;;16.02;14.52;;;22.50;86.50;;;;;;6155267;28;89219;-70
2023/01/02 00:57:47;;;;;;;15.68;14.27;;;22.50;86.50;;;;;;6156174;28;89463;-70
2023/01/02 01:00:50;;;;;;;15.27;13.90;;;22.50;86.50;;;;;;6155665;28;89061;-70
2023/01/02 01:03:52;;;;;;;16.13;14.57;;;22.50;87.40;;;;;;6152769;28;89158;-70
2023/01/02 01:06:54;;;;;;;15.18;13.82;;;22.50;86.40;;;;;;6155617;28;89050;-69
2023/01/02 01:09:58;;;;;;;15.32;13.88;;;22.40;86.40;;;;;;6155419;28;89058;-70
2023/01/02 01:13:00;;;;;;;15.75;14.35;;;22.40;86.40;;;;;;6152125;28;88162;-70
2023/01/02 01:16:06;;;;;;;15.63;14.23;;;22.40;86.40;;;;;;6151268;28;88776;-70
2023/01/02 01:19:09;;;;;;;15.48;14.07;;;22.40;86.40;;;;;;6154246;28;90159;-70
2023/01/02 01:22:11;;;;;;;15.10;13.80;;;22.40;86.60;;;;;;6153792;28;89982;-69
2023/01/02 01:25:14;;;;;;;14.93;13.52;;;22.40;86.40;;;;;;6155495;28;89131;-70
2023/01/02 01:28:16;;;;;;;14.50;13.20;;;22.40;86.30;;;;;;6154633;28;89122;-69
2023/01/02 01:31:18;;;;;;;15.02;13.73;;;22.40;86.20;;;;;;6155716;28;89406;-70
2023/01/02 01:34:20;;;;;;;14.75;13.45;;;22.40;86.20;;;;;;6155168;28;89387;-70
2023/01/02 01:37:22;;;;;;;14.90;13.52;;;22.40;86.20;;;;;;6155366;28;88378;-70
2023/01/02 01:40:26;;;;;;;14.93;13.57;;;22.40;86.20;;;;;;6151891;28;88158;-70
2023/01/02 01:43:39;;;;;;;14.82;13.52;;;22.40;86.20;;;;;;6155061;28;88324;-69
2023/01/02 01:46:45;;;;;;;15.05;13.75;;;22.30;86.20;;;;;;6155161;28;89412;-70
2023/01/02 01:49:49;;;;;;;14.77;13.48;;;22.30;86.20;;;;;;6150390;28;88014;-70
2023/01/02 01:52:55;;;;;;;14.95;13.65;;;22.30;86.20;;;;;;6154194;28;90095;-70
2023/01/02 01:56:03;;;;;;;13.98;12.77;;;22.30;86.20;;;;;;6154276;28;89551;-69
2023/01/02 01:59:07;;;;;;;13.98;12.70;;;22.30;86.20;;;;;;6151031;28;88993;-70
2023/01/02 02:02:09;;;;;;;14.45;13.15;;;22.30;86.10;;;;;;6154084;28;87977;-70
2023/01/02 02:05:14;;;;;;;14.05;12.77;;;22.30;86.10;;;;;;6154942;28;89361;-70
2023/01/02 02:08:20;;;;;;;13.98;12.77;;;22.30;86.10;;;;;;6154384;28;88717;-70
2023/01/02 02:11:23;;;;;;;14.40;13.10;;;22.30;86.10;;;;;;6153463;28;89301;-70
2023/01/02 02:14:26;;;;;;;14.10;12.82;;;22.30;86.00;;;;;;6154116;28;88386;-70
2023/01/02 02:17:37;;;;;;;14.50;13.20;;;22.20;86.80;;;;;;6154330;28;88185;-70
2023/01/02 02:20:49;;;;;;;14.13;12.93;;;22.20;85.90;;;;;;6153962;28;89138;-70
2023/01/02 02:24:34;;;;;;;13.43;12.23;;;22.20;85.90;;;;;;6152968;28;88917;-70
2023/01/02 02:28:07;;;;;;;14.55;13.25;;;22.20;85.90;;;;;;6144694;28;89090;-70
2023/01/02 02:31:16;;;;;;;13.57;12.38;;;22.20;85.90;;;;;;6147783;28;89143;-70
2023/01/02 02:34:23;;;;;;;12.80;11.70;;;22.20;85.90;;;;;;6154510;28;89083;-70
2023/01/02 02:37:31;;;;;;;12.77;11.65;;;22.20;85.90;;;;;;6154989;28;89014;-70
2023/01/02 02:40:44;;;;;;;12.38;11.27;;;22.20;85.80;;;;;;6149976;28;89075;-69
2023/01/02 02:43:57;;;;;;;13.38;12.18;;;22.10;85.70;;;;;;6156602;28;89210;-70
2023/01/02 02:47:06;;;;;;;13.02;11.85;;;22.20;85.80;;;;;;6149218;28;88419;-69
2023/01/02 02:50:12;;;;;;;13.13;11.93;;;22.10;85.70;;;;;;6158185;28;89913;-70
2023/01/02 02:53:21;;;;;;;12.40;11.30;;;22.10;85.70;;;;;;6157858;28;89137;-69
2023/01/02 02:56:25;;;;;;;13.05;11.85;;;22.10;85.60;;;;;;6156161;28;89503;-69
2023/01/02 02:59:28;;;;;;;12.80;11.70;;;22.10;85.60;;;;;;6158627;28;89073;-69
2023/01/02 03:02:32;;;;;;;13.10;11.90;;;22.10;85.70;;;;;;6157830;28;89119;-69
2023/01/02 03:05:38;;;;;;;12.35;11.25;;;22.10;85.70;;;;;;6158449;28;88839;-69
2023/01/02 03:08:46;;;;;;;12.57;11.48;;;22.10;85.70;;;;;;6156630;28;89211;-69
2023/01/02 03:11:59;;;;;;;12.68;11.57;;;22.10;85.60;;;;;;6154950;28;88013;-69
2023/01/02 03:15:09;;;;;;;12.60;11.50;;;22.10;85.60;;;;;;6157869;28;89463;-69
2023/01/02 03:18:23;;;;;;;12.50;11.40;;;22.10;85.50;;;;;;6157946;28;88641;-68
2023/01/02 03:21:32;;;;;;;12.07;10.98;;;22.10;85.50;;;;;;6156855;28;89367;-69
2023/01/02 03:24:36;;;;;;;12.25;11.05;;;22.10;85.50;;;;;;6157190;28;89095;-68
2023/01/02 03:27:43;;;;;;;11.85;10.82;;;22.10;85.50;;;;;;6156805;28;90112;-69
2023/01/02 03:30:47;;;;;;;12.85;11.63;;;22.00;85.50;;;;;;6157030;28;89064;-70
2023/01/02 03:33:54;;;;;;;12.32;11.23;;;22.00;85.50;;;;;;6154988;28;89663;-69
2023/01/02 03:37:01;;;;;;;12.38;11.20;;;22.00;85.50;;;;;;6157287;28;89082;-69
2023/01/02 03:40:07;;;;;;;12.55;11.45;;;22.00;85.40;;;;;;6152451;28;87951;-70
2023/01/02 03:43:14;;;;;;;12.73;11.60;;;22.00;85.50;;;;;;6156692;28;89356;-69
2023/01/02 03:46:24;;;;;;;11.95;10.85;;;22.00;85.50;;;;;;6155587;28;89341;-68
2023/01/02 03:49:32;;;;;;;11.88;10.82;;;22.00;85.40;;;;;;6157058;28;88303;-69
2023/01/02 03:52:34;;;;;;;11.63;10.63;;;22.00;85.40;;;;;;6157721;28;89200;-69
2023/01/02 03:55:41;;;;;;;12.15;10.95;;;22.00;85.40;;;;;;6156342;28;89199;-69
2023/01/02 03:58:49;;;;;;;11.70;10.70;;;22.00;85.30;;;;;;6154291;28;88785;-69
2023/01/02 04:02:00;;;;;;;11.57;10.52;;;22.00;85.30;;;;;;6156578;28;89182;-69
2023/01/02 04:05:10;;;;;;;12.20;11.10;;;22.00;85.30;;;;;;6156405;28;89101;-69
2023/01/02 04:08:17;;;;;;;12.43;11.27;;;22.00;85.30;;;;;;6155316;28;88951;-69
2023/01/02 04:11:20;;;;;;;12.90;11.70;;;21.90;85.20;;;;;;6156136;28;88046;-69
2023/01/02 04:14:29;;;;;;;12.50;11.27;;;21.90;85.20;;;;;;6151399;28;89173;-69
2023/01/02 04:17:36;;;;;;;12.10;11.00;;;21.90;85.20;;;;;;6155856;28;89119;-68
2023/01/02 04:20:42;;;;;;;11.75;10.75;;;21.90;85.20;;;;;;6153151;28;88385;-68
2023/01/02 04:23:50;;;;;;;12.25;11.15;;;21.90;85.20;;;;;;6156025;28;87957;-69
2023/01/02 04:26:56;;;;;;;12.55;11.45;;;21.90;85.20;;;;;;6155518;28;89167;-69
2023/01/02 04:29:58;;;;;;;12.52;11.43;;;22.00;85.00;;;;;;6156301;28;88896;-69
2023/01/02 04:33:06;;;;;;;12.65;11.45;;;21.90;84.80;;;;;;6155943;28;89037;-69
2023/01/02 04:36:12;;;;;;;12.68;11.48;;;21.90;84.70;;;;;;6155850;28;89327;-70
2023/01/02 04:39:14;;;;;;;13.07;11.88;;;22.00;84.70;;;;;;6156220;28;89207;-69
2023/01/02 04:42:16;;;;;;;12.65;11.45;;;22.00;84.70;;;;;;6155577;28;89091;-69
2023/01/02 04:45:18;;;;;;;13.63;12.23;;;22.00;84.60;;;;;;6155495;28;88475;-69
2023/01/02 04:48:20;;;;;;;12.60;11.50;;;22.00;84.50;;;;;;6156836;28;89227;-70
2023/01/02 04:51:24;;;;;;;13.48;12.27;;;22.00;84.50;;;;;;6156285;28;88654;-69
2023/01/02 04:54:26;;;;;;;13.02;11.75;;;22.00;84.40;;;;;;6154804;28;89080;-69
2023/01/02 04:57:28;;;;;;;12.82;11.63;;;22.00;84.40;;;;;;6155206;28;89169;-69
2023/01/02 05:00:30;;;;;;;13.68;12.38;;;22.10;84.30;;;;;;6154280;28;90402;-69
2023/01/02 05:03:32;;;;;;;13.50;12.30;;;22.10;84.20;;;;;;6153048;28;89062;-68
2023/01/02 05:06:36;;;;;;;13.70;12.40;;;22.10;84.20;;;;;;6146500;28;89159;-69
2023/01/02 05:09:38;;;;;;;13.73;12.43;;;22.10;84.10;;;;;;6154399;28;87853;-70
2023/01/02 05:12:40;;;;;;;14.00;12.65;;;22.10;84.00;;;;;;6147188;28;89658;-70
2023/01/02 05:15:42;;;;;;;13.27;12.07;;;22.10;84.00;;;;;;6153591;28;89539;-69
2023/01/02 05:18:44;;;;;;;14.27;12.88;;;22.20;84.00;;;;;;6155458;28;89115;-69
2023/01/02 05:25:08;;;;;;;13.55;12.35;;;22.20;83.80;;;;;;6145886;28;87350;-70
2023/01/02 05:28:10;;;;;;;14.13;12.82;;;22.20;83.80;;;;;;6155303;28;88016;-69
2023/01/02 05:31:12;;;;;;;13.73;12.43;;;22.20;83.70;;;;;;6153409;28;90455;-69
2023/01/02 05:34:15;;;;;;;13.98;12.57;;;22.20;83.70;;;;;;6155941;28;89076;-70
2023/01/02 05:37:19;;;;;;;14.05;12.75;;;22.20;83.60;;;;;;6154968;28;87968;-69
2023/01/02 05:40:21;;;;;;;13.40;12.13;;;22.20;83.60;;;;;;6154820;28;89186;-70
2023/01/02 05:43:23;;;;;;;13.82;12.52;;;22.30;83.60;;;;;;6154742;28;89117;-70
2023/01/02 05:46:25;;;;;;;13.63;12.35;;;22.30;83.60;;;;;;6155254;28;89153;-69
2023/01/02 05:49:27;;;;;;;13.75;12.52;;;22.30;83.50;;;;;;6154978;28;88940;-69
2023/01/02 05:52:30;;;;;;;13.05;11.75;;;22.30;83.50;;;;;;6155714;28;88505;-69
2023/01/02 05:55:32;;;;;;;14.38;12.98;;;22.30;83.40;;;;;;6153965;28;88770;-69
2023/01/02 05:58:36;;;;;;;13.75;12.45;;;22.30;84.20;;;;;;6154035;28;89197;-69
2023/01/02 06:01:38;;;;;;;12.98;11.77;;;22.30;83.30;;;;;;6154395;28;89962;-69
2023/01/02 06:04:40;;;;;;;13.55;12.25;;;22.30;83.30;;;;;;6154922;28;89158;-70
2023/01/02 06:07:44;;;;;;;13.63;12.30;;;22.30;83.20;;;;;;6154548;28;89113;-69
2023/01/02 06:10:50;;;;;;;12.93;11.73;;;22.30;83.20;;;;;;6154485;28;89129;-69
2023/01/02 06:13:53;;;;;;;13.77;12.27;;;22.30;83.20;;;;;;6156405;28;89064;-70
2023/01/02 06:16:55;;;;;;;13.82;12.50;;;22.30;83.20;;;;;;6159583;28;88938;-68
2023/01/02 06:19:57;;;;;;;13.10;11.90;;;22.40;83.20;;;;;;6159263;28;89637;-69
2023/01/02 06:23:01;;;;;;;13.38;12.02;;;22.40;83.10;;;;;;6159996;28;88412;-69
2023/01/02 06:26:04;;;;;;;13.00;11.80;;;22.40;83.00;;;;;;6156356;28;89402;-69
2023/01/02 06:29:06;;;;;;;12.93;11.57;;;22.30;83.00;;;;;;6159895;28;89238;-70
2023/01/02 06:32:08;;;;;;;12.85;11.55;;;22.40;83.00;;;;;;6158991;28;89035;-70
2023/01/02 06:35:10;;;;;;;13.45;12.18;;;22.40;82.90;;;;;;6158906;28;89421;-69
2023/01/02 06:38:13;;;;;;;12.48;11.38;;;22.40;82.90;;;;;;6159162;28;89076;-69
2023/01/02 06:41:17;;;;;;;13.20;11.90;;;22.40;82.80;;;;;;6153995;28;89119;-70
2023/01/02 06:44:19;;;;;;;13.05;11.82;;;22.40;82.80;;;;;;6158190;28;89400;-70
2023/01/02 06:47:21;;;;;;;12.32;11.13;;;22.40;82.80;;;;;;6155019;28;89111;-68
2023/01/02 06:50:23;;;;;;;12.30;11.18;;;22.40;82.80;;;;;;6159377;28;89164;-70
2023/01/02 06:53:27;;;;;;;12.20;11.10;;;22.50;82.80;;;;;;6159415;28;88336;-70
2023/01/02 06:56:29;;;;;;;12.52;11.38;;;22.50;82.70;;;;;;6158274;28;89215;-69
2023/01/02 06:59:31;;;;;;;12.20;11.00;;;22.50;82.70;;;;;;6156914;28;89109;-70
2023/01/02 07:02:33;;;;;;;12.40;11.27;;;22.50;82.70;;;;;;6156904;28;90063;-69
2023/01/02 07:05:35;;;;;;;12.07;10.98;;;22.40;82.50;;;;;;6158167;28;89428;-69
2023/01/02 07:08:38;;;;;;;11.95;10.85;;;22.50;82.50;;;;;;6157579;28;89487;-69
2023/01/02 07:11:40;;;;;;;12.07;10.98;;;22.50;82.50;;;;;;6159211;28;89428;-70
2023/01/02 07:14:42;;;;;;;12.00;10.73;;;22.50;82.50;;;;;;6156231;28;89072;-69
2023/01/02 07:17:45;;;;;;;11.77;10.68;;;22.50;82.50;;;;;;6157782;28;89039;-69
2023/01/02 07:20:54;;;;;;;10.88;9.88;;;22.50;82.50;;;;;;6157227;28;88873;-69
2023/01/02 07:23:57;;;;;;;10.45;9.55;;;22.50;82.30;;;;;;6158046;28;88700;-69
2023/01/02 07:26:59;;;;;;;11.70;10.50;;;22.50;81.00;;;;;;6154944;28;88914;-69
2023/01/02 07:30:01;;;;;;;10.95;9.95;;;22.50;80.90;;;;;;6157117;28;89114;-69
2023/01/02 07:33:03;;;;;;;11.55;10.43;;;22.50;81.20;;;;;;6157760;28;90426;-69
2023/01/02 07:36:07;;;;;;;11.38;10.27;;;22.50;81.20;;;;;;6155098;28;89053;-70
2023/01/02 07:39:11;;;;;;;11.50;10.40;;;22.60;81.30;;;;;;6157021;28;88799;-70
2023/01/02 07:42:13;;;;;;;11.18;10.10;;;22.50;81.20;;;;;;6154645;28;89503;-69
2023/01/02 07:45:15;;;;;;;11.20;10.20;;;22.60;81.30;;;;;;6155272;28;91949;-69
2023/01/02 07:48:17;;;;;;;10.60;9.70;;;22.60;81.30;;;;;;6155580;28;89075;-69
2023/01/02 07:51:20;;;;;;;10.93;9.90;;;22.60;81.30;;;;;;6155316;28;89099;-68
2023/01/02 07:54:23;;;;;;;10.93;9.93;;;22.50;81.30;;;;;;6157839;28;88440;-69
2023/01/02 07:57:25;;;;;;;12.70;11.52;;;22.60;81.30;;;;;;6156537;28;89059;-67
2023/01/02 08:00:27;;;;;;;10.80;9.80;;;22.60;83.70;;;;;;6157517;28;89465;-70
2023/01/02 08:03:30;;;;;;;10.18;9.38;;;22.60;83.80;;;;;;6155603;28;90120;-69
2023/01/02 08:06:33;;;;;;;10.88;9.88;;;22.70;83.50;;;;;;6158502;28;88958;-69
2023/01/02 08:09:36;;;;;;;10.45;9.55;;;22.80;85.10;;;;;;6158074;28;89000;-69
2023/01/02 08:12:38;;;;;;;10.68;9.60;;;22.80;82.80;;;;;;6170517;28;89056;-69
2023/01/02 08:15:40;;;;;;;11.00;10.00;;;22.80;82.10;;;;;;6157678;28;89032;-69
2023/01/02 08:18:43;;;;;;;10.90;9.90;;;22.90;82.00;;;;;;6156832;28;89343;-69
2023/01/02 08:21:45;;;;;;;10.68;9.68;;;22.90;81.80;;;;;;6156843;28;89123;-71
2023/01/02 08:24:48;;;;;;;10.40;9.45;;;22.80;81.60;;;;;;6159104;28;88402;-69
2023/01/02 08:27:50;;;;;;;10.27;9.27;;;22.80;82.30;;;;;;6157624;28;89387;-70
2023/01/02 08:30:52;;;;;;;10.23;9.32;;;22.90;83.70;;;;;;6157944;28;89098;-71
2023/01/02 08:33:55;;;;;;;10.27;9.27;;;22.90;83.00;;;;;;6156976;28;90507;-70
2023/01/02 08:36:57;;;;;;;10.73;9.63;;;22.80;82.40;;;;;;6156028;28;89359;-69
2023/01/02 08:40:00;;;;;;;10.20;9.30;;;22.90;83.30;;;;;;6157031;28;89570;-69
2023/01/02 08:43:02;;;;;;;10.35;9.35;;;22.90;83.20;;;;;;6151627;28;89017;-70
2023/01/02 08:46:05;;;;;;;17.42;11.82;;;22.90;84.40;;;;;;6155117;28;89636;-71
2023/01/02 08:49:07;;;;;;;14.25;11.18;;;22.90;83.90;;;;;;6152142;28;89285;-71
2023/01/02 08:52:09;;;;;;;15.23;11.52;;;22.90;83.80;;;;;;6153639;28;89013;-72
2023/01/02 08:55:13;;;;;;;12.70;10.80;;;22.90;83.70;;;;;;6154674;28;88313;-72
2023/01/02 08:58:15;;;;;;;13.27;10.77;;;22.90;83.50;;;;;;6154932;28;89055;-70
2023/01/02 09:01:17;;;;;;;14.43;10.85;;;22.90;83.30;;;;;;6152895;28;90249;-71
2023/01/02 09:04:19;;;;;;;13.77;10.55;;;22.90;83.40;;;;;;6155665;28;90083;-70
2023/01/02 09:07:22;;;;;;;12.73;10.20;;;22.90;83.20;;;;;;6155062;28;87709;-71
2023/01/02 09:10:25;;;;;;;12.98;9.73;;;22.90;83.10;;;;;;6152247;28;89385;-71
2023/01/02 09:13:27;;;;;;;12.68;9.73;;;22.90;83.80;;;;;;6144613;28;89013;-71
2023/01/02 09:16:30;;;;;;;13.43;9.30;;;22.90;83.00;;;;;;6157119;28;89367;-70
2023/01/02 09:19:32;;;;;;;13.65;9.55;;;23.00;83.00;;;;;;6149828;28;89436;-71
2023/01/02 09:22:34;;;;;;;12.30;9.70;;;23.00;83.00;;;;;;6155062;28;89390;-70
2023/01/02 09:25:37;;;;;;;12.45;9.50;;;23.00;83.10;;;;;;6155690;28;86881;-71
2023/01/02 09:28:40;;;;;;;11.45;9.15;;;23.00;83.00;;;;;;6156174;28;89144;-70
2023/01/02 09:31:42;;;;;;;12.35;8.60;;;22.90;83.00;;;;;;6157000;28;87810;-71
2023/01/02 09:34:49;;;;;;;12.60;10.18;;;23.00;83.10;;;;;;6155359;28;90083;-70
2023/01/02 09:37:51;;;;;;;13.68;9.68;;;23.00;83.40;;;;;;6155614;28;89406;-70
2023/01/02 09:40:55;;;;;;;16.83;10.77;;;23.00;83.50;;;;;;6156388;28;89090;-70
2023/01/02 09:44:01;;;;;;;16.20;10.02;;;23.00;83.50;;;;;;6152825;28;89118;-69
2023/01/02 09:47:06;;;;;;;14.52;9.52;;;23.00;84.00;;;;;;6153788;28;89151;-71
2023/01/02 09:50:15;;;;;;;11.43;9.05;;;23.00;84.30;;;;;;6155280;28;89129;-71
2023/01/02 09:53:17;;;;;;;13.68;9.40;;;23.00;84.70;;;;;;6155276;28;89157;-70
2023/01/02 09:56:24;;;;;;;15.20;9.50;;;23.00;84.90;;;;;;6154949;28;88316;-70
2023/01/02 09:59:32;;;;;;;11.45;8.25;;;23.00;85.20;;;;;;6154895;28;87982;-70
2023/01/02 10:02:51;;;;;;;13.75;8.95;;;23.00;85.30;;;;;;6153418;28;89100;-70
2023/01/02 10:06:09;;;;;;;13.27;8.90;;;23.00;85.40;;;;;;6154575;28;91237;-70
2023/01/02 10:09:17;;;;;;;10.40;8.25;;;23.00;85.60;;;;;;6156435;28;89130;-71
2023/01/02 10:12:28;;;;;;;11.98;8.93;;;23.00;85.60;;;;;;6156843;28;89298;-71
2023/01/02 10:15:31;;;;;;;11.93;8.38;;;23.00;85.90;;;;;;6154423;28;89005;-69
2023/01/02 10:18:38;;;;;;;11.07;8.40;;;23.00;86.00;;;;;;6154410;28;87972;-69
2023/01/02 10:21:42;;;;;;;11.93;7.80;;;23.00;86.20;;;;;;6154844;28;89119;-70
2023/01/02 10:24:48;;;;;;;11.43;7.60;;;23.00;86.30;;;;;;6144460;28;89164;-70
2023/01/02 10:27:56;;;;;;;11.82;8.00;;;23.00;86.60;;;;;;6167179;28;88233;-70
2023/01/02 10:31:03;;;;;;;12.15;8.65;;;23.00;86.60;;;;;;6151781;28;88031;-70
2023/01/02 10:34:12;;;;;;;10.88;7.43;;;23.00;86.60;;;;;;6150907;28;89072;-70
2023/01/02 10:37:16;;;;;;;12.48;8.30;;;23.00;86.80;;;;;;6154519;28;90048;-70
2023/01/02 10:40:19;;;;;;;9.98;7.30;;;23.00;86.80;;;;;;6154976;28;90178;-69
2023/01/02 10:43:23;;;;;;;10.77;7.50;;;23.00;86.80;;;;;;6155682;28;87645;-68
2023/01/02 10:46:29;;;;;;;12.30;7.30;;;23.10;87.10;;;;;;6157585;28;88730;-70
2023/01/02 10:49:33;;;;;;;10.93;7.00;;;23.10;88.00;;;;;;6153951;28;89128;-69
2023/01/02 10:52:39;;;;;;;10.93;7.65;;;23.10;88.00;;;;;;6145544;28;89484;-68
2023/01/02 10:55:44;;;;;;;14.52;8.40;;;23.10;88.90;;;;;;6153650;28;89044;-68
2023/01/02 10:58:49;;;;;;;13.98;7.47;;;23.10;88.20;;;;;;6153068;28;88471;-68
2023/01/02 11:01:53;;;;;;;13.32;7.70;;;23.10;88.20;;;;;;6153592;28;88856;-69
2023/01/02 11:05:00;;;;;;;10.82;7.40;;;23.10;88.20;;;;;;6154700;28;88866;-68
2023/01/02 11:08:12;;;;;;;10.90;6.75;;;23.10;88.30;;;;;;6157889;28;89214;-68
2023/01/02 11:11:15;;;;;;;13.35;7.10;;;23.10;88.30;;;;;;6152533;28;89096;-68
2023/01/02 11:14:23;;;;;;;11.02;7.25;;;23.10;88.10;;;;;;6150072;28;89159;-69
2023/01/02 11:17:25;;;;;;;11.95;6.72;;;23.10;88.00;;;;;;6159401;28;90151;-69
2023/01/02 11:20:30;;;;;;;11.18;6.95;;;23.10;88.30;;;;;;6158705;28;89156;-69
2023/01/02 11:23:35;;;;;;;9.60;7.25;;;23.10;88.50;;;;;;6158150;28;89149;-69
2023/01/02 11:26:40;;;;;;;11.77;7.47;;;23.10;89.50;;;;;;6159431;28;89071;-70
2023/01/02 11:29:47;;;;;;;12.18;7.50;;;23.10;89.00;;;;;;6154314;28;88433;-70
2023/01/02 11:33:02;;;;;;;12.70;7.88;;;23.10;89.20;;;;;;6154298;28;89197;-70
2023/01/02 11:36:15;;;;;;;10.77;7.53;;;23.10;89.20;;;;;;6155921;28;89306;-70
2023/01/02 11:39:23;;;;;;;11.23;7.28;;;23.10;89.10;;;;;;6157187;28;90332;-70
2023/01/02 11:45:54;;;;;;;9.23;6.63;;;23.10;83.80;;;;;;6156675;28;87237;-70
2023/01/02 11:49:04;;;;;;;9.18;6.53;;;23.10;84.20;;;;;;6157758;28;89159;-69
2023/01/02 11:52:09;;;;;;;8.93;6.88;;;23.10;83.70;;;;;;6156390;28;89156;-70
2023/01/02 11:55:19;;;;;;;9.25;6.63;;;23.10;83.70;;;;;;6152865;28;89158;-70
2023/01/02 11:58:30;;;;;;;8.20;6.40;;;23.10;83.60;;;;;;6157684;28;88248;-69
2023/01/02 12:01:41;;;;;;;6.93;6.22;;;23.10;82.80;;;;;;6153882;28;88474;-69
2023/01/02 12:04:43;;;;;;;7.75;6.80;;;23.10;83.00;;;;;;6157482;28;89569;-69
2023/01/02 12:07:48;;;;;;;7.38;6.00;;;23.10;82.80;;;;;;6158316;28;89203;-69
2023/01/02 12:11:04;;;;;;;6.60;5.88;;;23.10;82.90;;;;;;6156018;28;90186;-69
2023/01/02 12:14:13;;;;;;;6.93;6.22;;;23.10;83.00;;;;;;6153582;28;89167;-69
2023/01/02 12:17:20;;;;;;;6.43;5.82;;;23.10;82.90;;;;;;6155751;28;89151;-69
2023/01/02 12:20:36;;;;;;;5.90;5.40;;;23.10;83.00;;;;;;6157408;28;89355;-68
2023/01/02 12:24:09;;;;;;;7.82;6.00;;;23.10;82.30;;;;;;6154268;28;89043;-69
2023/01/02 12:27:19;;;;;;;6.63;5.65;;;23.10;82.00;;;;;;6153235;28;88848;-69
2023/01/02 12:30:22;;;;;;;7.55;5.57;;;23.10;81.70;;;;;;6151581;28;88999;-69
2023/01/02 12:33:42;;;;;;;5.60;5.10;;;23.10;81.60;;;;;;6158289;28;88400;-68
2023/01/02 12:36:55;;;;;;;6.28;5.68;;;23.10;81.70;;;;;;6146903;28;89091;-69
2023/01/02 12:40:33;;;;;;;6.38;5.47;;;23.10;82.60;;;;;;6144763;28;89142;-70
2023/01/02 12:44:00;;;;;;;5.82;5.30;;;23.10;81.40;;;;;;6156116;28;90053;-69
2023/01/02 12:47:37;;;;;;;6.53;5.80;;;23.10;81.40;;;;;;6144305;28;89329;-69
2023/01/02 12:51:04;;;;;;;8.88;5.68;;;23.10;80.30;;;;;;6147373;28;89194;-69
2023/01/02 12:54:23;;;;;;;6.03;5.22;;;23.10;79.10;;;;;;6153181;28;89400;-69
2023/01/02 12:57:33;;;;;;;5.72;5.22;;;23.10;78.40;;;;;;6157717;28;89145;-69
2023/01/02 13:00:54;;;;;;;6.95;5.55;;;23.10;78.30;;;;;;6153144;28;89130;-68
2023/01/02 13:04:04;;;;;;;7.20;5.07;;;23.00;77.90;;;;;;6154629;28;89069;-68
2023/01/02 13:07:16;;;;;;;5.50;4.75;;;23.10;79.30;;;;;;6164653;28;88422;-68
2023/01/02 13:10:22;;;;;;;5.68;5.10;;;23.00;80.30;;;;;;6153828;28;89057;-68
2023/01/02 13:13:29;;;;;;;7.03;4.60;;;23.00;81.00;;;;;;6152408;28;87995;-68
2023/01/02 13:16:31;;;;;;;5.78;4.88;;;23.10;81.50;;;;;;6151368;28;89943;-68
2023/01/02 13:19:39;;;;;;;7.43;5.30;;;23.10;81.80;;;;;;6155516;28;89091;-67
2023/01/02 13:22:46;;;;;;;5.50;5.00;;;23.10;82.00;;;;;;6147758;28;89171;-69
2023/01/02 13:25:51;;;;;;;4.78;4.25;;;23.10;82.40;;;;;;6150909;28;89418;-68
2023/01/02 13:28:56;;;;;;;6.22;4.80;;;23.10;82.60;;;;;;6155847;28;89571;-68
2023/01/02 13:31:58;;;;;;;4.90;4.50;;;23.00;82.80;;;;;;6155947;28;89069;-69
2023/01/02 13:35:03;;;;;;;5.32;4.78;;;23.10;83.10;;;;;;6155560;28;89413;-67
2023/01/02 13:38:08;;;;;;;5.45;4.65;;;23.00;83.20;;;;;;6157162;28;88600;-68
2023/01/02 13:41:14;;;;;;;5.10;4.60;;;23.10;83.30;;;;;;6153404;28;89301;-69
2023/01/02 13:44:16;;;;;;;5.88;4.50;;;23.10;83.40;;;;;;6155800;28;89088;-68
2023/01/02 13:47:23;;;;;;;4.55;4.13;;;23.10;83.50;;;;;;6155662;28;90028;-68
2023/01/02 13:50:27;;;;;;;4.65;4.25;;;23.10;83.60;;;;;;6154841;28;89095;-68
2023/01/02 13:53:50;;;;;;;4.80;4.40;;;23.00;83.70;;;;;;6167876;28;89304;-69
2023/01/02 13:57:30;;;;;;;4.68;4.25;;;23.10;83.80;;;;;;6152169;28;89188;-68
2023/01/02 14:00:36;;;;;;;5.32;4.70;;;23.00;83.20;;;;;;6150092;28;89172;-67
2023/01/02 14:03:38;;;;;;;4.63;4.22;;;23.00;81.70;;;;;;6153101;28;89094;-67
2023/01/02 14:06:42;;;;;;;4.65;4.25;;;23.00;81.50;;;;;;6154083;28;89109;-67
2023/01/02 14:10:26;;;;;;;5.00;4.60;;;23.00;81.50;;;;;;6154368;28;88304;-69
2023/01/02 14:13:34;;;;;;;4.57;4.18;;;23.00;84.40;;;;;;6153247;28;87956;-68
2023/01/02 14:17:02;;;;;;;5.35;4.68;;;23.10;83.60;;;;;;6152596;28;89243;-68
2023/01/02 14:20:24;;;;;;;4.70;4.22;;;23.10;82.70;;;;;;6151662;28;90212;-68
2023/01/02 14:23:29;;;;;;;4.90;4.40;;;23.10;82.30;;;;;;6145732;28;89747;-67
2023/01/02 14:26:36;;;;;;;4.30;4.00;;;23.10;82.30;;;;;;6155422;28;89109;-68
2023/01/02 14:29:43;;;;;;;4.70;4.20;;;23.10;82.50;;;;;;6144830;28;89218;-68
2023/01/02 14:32:47;;;;;;;4.90;4.05;;;23.10;82.50;;;;;;6154814;28;90209;-68
2023/01/02 14:35:51;;;;;;;4.20;3.85;;;23.10;82.50;;;;;;6159979;28;89100;-67
2023/01/02 14:38:56;;;;;;;4.75;3.95;;;23.10;82.30;;;;;;6158522;28;89322;-68
2023/01/02 14:45:45;;;;;;;5.45;3.95;;;23.10;82.30;;;;;;6159408;28;87348;-68
2023/01/02 14:48:54;;;;;;;4.22;3.88;;;23.00;82.30;;;;;;6159016;28;89140;-68
2023/01/02 14:52:02;;;;;;;4.10;3.80;;;23.10;82.40;;;;;;6156930;28;91237;-68
2023/01/02 14:55:10;;;;;;;4.30;3.95;;;23.10;82.50;;;;;;6158154;28;89451;-68
2023/01/02 14:58:20;;;;;;;5.38;3.92;;;23.00;82.50;;;;;;6158795;28;89021;-68
2023/01/02 15:01:24;;;;;;;7.35;4.47;;;23.10;82.60;;;;;;6158510;28;89260;-67
2023/01/02 15:04:38;;;;;;;5.78;4.22;;;23.10;82.30;;;;;;6158743;28;88621;-67
2023/01/02 15:07:43;;;;;;;6.45;3.97;;;23.10;82.30;;;;;;6159162;28;89451;-68
2023/01/02 15:13:02;;;;;;;4.90;3.40;;;23.10;82.40;;;;;;6160278;28;89047;-67
2023/01/02 15:14:23;;;;;;;5.22;3.80;;;23.10;82.40;;;;;;6149728;28;87071;-67
2023/01/02 15:17:25;;;;;;;4.22;3.83;;;23.10;82.50;;;;;;6159541;28;89081;-67
2023/01/02 15:20:29;;;;;;;4.38;4.03;;;23.10;82.50;;;;;;6158258;28;89037;-67
2023/01/02 15:23:32;;;;;;;5.47;4.25;;;23.10;82.50;;;;;;6157237;28;90065;-67
2023/01/02 15:26:35;;;;;;;4.00;3.50;;;23.10;82.50;;;;;;6158397;28;89117;-68
2023/01/02 15:29:46;;;;;;;3.88;3.50;;;23.10;82.50;;;;;;6158749;28;89550;-66
2023/01/02 15:32:49;;;;;;;4.43;3.70;;;23.10;82.50;;;;;;6157844;28;89330;-67
2023/01/02 15:35:55;;;;;;;3.95;3.65;;;23.10;82.40;;;;;;6157468;28;89256;-67
2023/01/02 15:39:12;;;;;;;5.65;3.45;;;23.10;82.30;;;;;;6157275;28;89115;-67
2023/01/02 15:45:42;;;;;;;4.20;3.80;;;23.10;82.40;;;;;;6158185;28;86607;-67
2023/01/02 15:48:46;;;;;;;4.30;3.38;;;23.10;82.40;;;;;;6157613;28;88036;-67
2023/01/02 15:51:48;;;;;;;3.80;3.50;;;23.10;82.40;;;;;;6160122;28;88965;-68
2023/01/02 15:54:51;;;;;;;3.97;3.65;;;23.10;82.40;;;;;;6157545;28;90279;-68
2023/01/02 15:57:54;;;;;;;5.38;3.88;;;23.10;82.50;;;;;;6158075;28;89513;-67
2023/01/02 16:01:17;;;;;;;4.20;3.80;;;23.10;82.50;;;;;;6156338;28;89443;-67
2023/01/02 16:04:26;;;;;;;4.03;3.65;;;23.10;82.60;;;;;;6156861;28;89136;-68